首页
METAR-TAF:

METAR-TAF

机场 :

Miami Opa Locka Executive Airport

迈阿密, 佛罗里达州, 美国

纬度: 25-54-36N, 经度: 080-16-59W, 海拔: 3米

当前天气观测

该预报发布于32分钟前的22:53 UTC
风速10节,风向东转东南
温度 31°C
湿度 66%
气压 1016 hPa
能見度: 16.1公里
天空无云

METAR: KOPF 152253Z 11010KT 10SM CLR 31/24 A3001 RMK AO2 SLP164 T03060244

时间: 19:25 (23:25 UTC)

预报

该预报发布于2小时和25分钟前的21:00 UTC
预报有效从15日的 21点(UTC)到 16日的 18点(UTC)
风速10节,风向东转东南
能見度: 10公里
散云层高于3000英尺
散云层高于5000英尺
多云层高于25000英尺
从 16日的 0200点(UTC)
风速4节,风向多变
能見度: 10公里
散云层高于6000英尺
散云层高于25000英尺
从 16日的 1500点(UTC)
风速10节,风向东转东南
能見度: 10公里
散云层高于3000英尺
多云层高于5000英尺

TAF: KOPF 152100Z 1521/1618 11010KT P6SM SCT030 SCT050 BKN250 FM160200 VRB04KT P6SM SCT060 SCT250 FM161500 11010KT P6SM SCT030 BKN050

超过4000个机场的气象观测和天气预报(METAR&TAF报告)。

可查询的气象台以黄色和红色小点在地图上表示。

将鼠标移到小点上方,可查看气象台名称。

然后点击查看天气观测和预报。

如需切换地图:点击带黑十字的绿色按钮放大地图;点击带横线的绿色按钮缩小地图;或者点击绿色箭头查看邻近地区的地图。


METAR-TAF: